메인 페이지
METAR-TAF:

METAR-TAF

공항 :

매콤, 미시시피, 미국

위도: 31-10-42N, 경도: 090-28-19W, 고도: 126m

현재 날씨관측

예보는 18분 전, 00:53시(UTC)에 발표되었습니다.
남남동7kt
온도 28°C
습도 70%
기압 1016 hPa
시정: 16.1km
맑음

METAR: KMCB 210053Z AUTO 15007KT 10SM CLR 28/22 A2999 RMK AO2 SLP148 T02780217

시각: 20:11 (01:11 UTC)

예보

예보는 1 시간 45분 전, 23:26시(UTC)에 발표되었습니다.
예보 대상 시간: 21일 00시부터 21일 24시까지 (UTC)
남남동6kt
시정: 10km
맑음
21일 1000시부터 (UTC)
kt
시정: 10km
고도 3500ft 상공 구름 조금
고도 4500ft 상공 구름 보통
일시적
21일 11시부터 21일 14시까지 (UTC)
고도 1000ft 상공 구름 많음
고도 3500ft 상공 구름 많음
21일 1400시부터 (UTC)
여러 방향의 바람 3kt
시정: 10km
고도 1500ft 상공 구름 보통
고도 2000ft 상공 구름 많음
21일 1700시부터 (UTC)
남동4kt
시정: 10km
고도 2500ft 상공 구름 조금
고도 3000ft 상공 구름 보통
확률 30%
21일 18시부터 21일 24시까지 (UTC)
시정: 6.4km
고도 3000ft 상공 구름 많음, 적란운.
고도 3500ft 상공 구름 많음
고도 4000ft 상공 구름 많음
뇌우, 약한비

TAF: KMCB 202326Z 2100/2124 15006KT P6SM SKC FM211000 00000KT P6SM FEW035 SCT045 TEMPO 2111/2114 BKN010 BKN035 FM211400 VRB03KT P6SM SCT015 BKN020 FM211700 13004KT P6SM FEW025 SCT030 PROB30 2118/2124 4SM -TSRA BKN030CB BKN035 BKN040

4,000개 이상의 공항 관측 자료 및 예보 (METAR 및 TAF 보고).

지도상에서 검색 가능한 기상관측소가 노란 점과 빨간 점으로 표시되어 있습니다.

기상관측소 명을 보려면 표시 위로 마우스를 이동하세요.

날씨 관측과 예보를 보려면 클릭하세요.

지도 변경 : 확대하려면 엑스 표시가 있는 녹색 버튼, 축소하려면 빼기 표시가 있는 녹색 버튼, 다음 페이지의 지도를 보려면 녹색 화살표를 클릭하세요.


METAR-TAF: